Reklama
Líbí se Vám tento web? Budeme velmi rádi, pokud přidáte hodnocení +1

Seznam meteostanic a jejich METAR

Vyhledat místa podle abecedy:
A B C D E F G H I J K L M N O P Q R S T U V W X Y Z

Filtrovat:

ID stanice:
a/nebo
Název místa (fulltext):
 
Místo (ID)Naposledy načteno 
Červená - Opava (Cervena/uL) 21.06.2018 02:00 UTC Zobrazit data
Místo: Červená - Opava
Teplota: 19 °C (pocitová: 18.5 °C)
Vítr: 2 m/s z(e) 170°
Počasí: skoro zataženo
Dohlednost: 35 km
Zákl. oblačnosti: 7/8 1500 m
Vlhkost: 68%
České Budějovice (C.Budej/po) 21.06.2018 02:00 UTC Zobrazit data
Místo: České Budějovice
Teplota: 15 °C (pocitová: 13.3 °C)
Vítr: 2 m/s z(e) 170°
Počasí:
Dohlednost: 23 km
Zákl. oblačnosti: N/A
Vlhkost: 88%
Cheb (Cheb) 21.06.2018 02:00 UTC Zobrazit data
Místo: Cheb
Teplota: 15 °C (pocitová: 14.1 °C)
Vítr: 1 m/s z(e) 0°
Počasí:
Dohlednost: 12 km
Zákl. oblačnosti: N/A
Vlhkost: 94%
Chotusice - Čáslav (Caslav) 21.06.2018 02:00 UTC Zobrazit data
Místo: Chotusice - Čáslav
Teplota: 17 °C (pocitová: 15.9 °C)
Vítr: 2 m/s z(e) 120°
Počasí: slunečno
Dohlednost: 20 km
Zákl. oblačnosti: N/A
Vlhkost: 77%
Churáňov (Churanov) 21.06.2018 02:00 UTC Zobrazit data
Místo: Churáňov
Teplota: 13 °C (pocitová: 10.8 °C)
Vítr: 2 m/s z(e) 200°
Počasí:
Dohlednost: 35 km
Zákl. oblačnosti: N/A
Vlhkost: 82%
Cairo (HECA) 21.06.2018 02:00 UTC Zobrazit METAR
HECA 210200Z 05006KT CAVOK 26/19 Q1014 NOSIG
Canberra (YSCB) 21.06.2018 01:00 UTC Zobrazit METAR
YSCB 210100Z 29005KT CAVOK 06/02 Q1029 NOSIG
Caracas (SVMP) Zatím nenačteno  
Cayenne (SOCA) 21.06.2018 02:00 UTC Zobrazit METAR
SOCA 210200Z AUTO 00000KT 9999 FEW030 BKN043 BKN064 24/24 Q1016 TEMPO 3000 SHRA FEW012TCU
Charlotte Amalie (TIST) 21.06.2018 01:53 UTC Zobrazit METAR
TIST 210153Z AUTO 12011KT 10SM CLR 28/23 A3006 RMK AO2 SLP180 T02780233
Chisinau (LUKK) 21.06.2018 02:00 UTC Zobrazit METAR
LUKK 210200Z VRB02KT CAVOK 19/16 Q1018 R26/CLRD// NOSIG
Colombo (VCBI) 21.06.2018 01:10 UTC Zobrazit METAR
VCBI 210110Z 17005KT 150V210 9000 SCT018 24/23 Q1010 NOSIG
Conakry (GUCY) 20.06.2018 23:00 UTC Zobrazit METAR
GUCY 202300Z 00000KT 9999 SCT015 BKN110 27/23 Q1016 NOSIG
Constanta (LRCK) 21.06.2018 02:00 UTC Zobrazit METAR
LRCK 210200Z 34003KT 310V010 CAVOK 21/14 Q1017 NOSIG
Constantine (DABC) 21.06.2018 02:00 UTC Zobrazit METAR
DABC 210200Z 13002KT 9999 SCT026 16/12 Q1019
Copenhagen (EKCH) 21.06.2018 01:50 UTC Zobrazit METAR
EKCH 210150Z 23012KT 9999 -RA FEW018 BKN090 17/15 Q1009 NOSIG
Cork (EICK) 21.06.2018 02:00 UTC Zobrazit METAR
EICK 210200Z 30007KT 9999 FEW022 SCT040 09/07 Q1028 NOSIG
Cotonou (DBBB) 20.06.2018 16:00 UTC Zobrazit METAR
DBBB 201600Z 23016KT 9999 SCT013 28/24 Q1012 NOSIG
Curacao Island (TNCC) 21.06.2018 02:00 UTC Zobrazit METAR
TNCC 210200Z 11013KT CAVOK 27/23 Q1014 NOSIG
Reklama

Počasí na Váš email

Emaily jsou bez reklamy a bez spamu



Odhlásit newsletter

Reklama


Lunární kalendář

  • 28.06.
  • 06.07.
  • 13.07.
  • 19.07.



Slunečno.cz na Google+

Reklama


Reklama
Povinné ručení
Reklama




Reklama